sensor_id;sensor_type;location;lat;lon;timestamp;P1;durP1;ratioP1;P2;durP2;ratioP2
48268;SDS011;34088;52.232;5.196;2022-08-24T00:01:12;13.80;;;12.20;;
48268;SDS011;34088;52.232;5.196;2022-08-24T00:03:39;14.27;;;10.18;;
48268;SDS011;34088;52.232;5.196;2022-08-24T00:06:06;14.90;;;10.82;;
48268;SDS011;34088;52.232;5.196;2022-08-24T00:08:34;11.20;;;10.00;;
48268;SDS011;34088;52.232;5.196;2022-08-24T00:11:01;14.50;;;10.10;;
48268;SDS011;34088;52.232;5.196;2022-08-24T00:13:27;14.35;;;11.20;;
48268;SDS011;34088;52.232;5.196;2022-08-24T00:15:54;12.82;;;11.50;;
48268;SDS011;34088;52.232;5.196;2022-08-24T00:18:20;13.85;;;10.63;;
48268;SDS011;34088;52.232;5.196;2022-08-24T00:20:46;12.13;;;10.75;;
48268;SDS011;34088;52.232;5.196;2022-08-24T00:23:13;12.02;;;9.77;;
48268;SDS011;34088;52.232;5.196;2022-08-24T00:25:39;12.48;;;10.20;;
48268;SDS011;34088;52.232;5.196;2022-08-24T00:28:06;13.45;;;9.95;;
48268;SDS011;34088;52.232;5.196;2022-08-24T00:30:32;10.63;;;9.02;;
48268;SDS011;34088;52.232;5.196;2022-08-24T00:32:59;11.15;;;9.82;;
48268;SDS011;34088;52.232;5.196;2022-08-24T00:35:26;12.77;;;10.10;;
48268;SDS011;34088;52.232;5.196;2022-08-24T00:37:52;12.88;;;10.50;;
48268;SDS011;34088;52.232;5.196;2022-08-24T00:42:49;11.63;;;9.57;;
48268;SDS011;34088;52.232;5.196;2022-08-24T00:45:16;9.73;;;8.75;;
48268;SDS011;34088;52.232;5.196;2022-08-24T00:47:46;9.52;;;8.30;;
48268;SDS011;34088;52.232;5.196;2022-08-24T00:53:02;12.43;;;9.43;;
48268;SDS011;34088;52.232;5.196;2022-08-24T00:55:35;11.60;;;9.50;;
48268;SDS011;34088;52.232;5.196;2022-08-24T00:58:06;12.57;;;9.50;;
48268;SDS011;34088;52.232;5.196;2022-08-24T01:00:41;10.93;;;9.80;;
48268;SDS011;34088;52.232;5.196;2022-08-24T01:03:09;12.77;;;10.82;;
48268;SDS011;34088;52.232;5.196;2022-08-24T01:05:37;15.45;;;11.15;;
48268;SDS011;34088;52.232;5.196;2022-08-24T01:08:05;12.20;;;11.02;;
48268;SDS011;34088;52.232;5.196;2022-08-24T01:10:34;13.40;;;11.65;;
48268;SDS011;34088;52.232;5.196;2022-08-24T01:13:06;13.43;;;11.80;;
48268;SDS011;34088;52.232;5.196;2022-08-24T01:15:34;13.70;;;10.40;;
48268;SDS011;34088;52.232;5.196;2022-08-24T01:18:02;12.27;;;10.30;;
48268;SDS011;34088;52.232;5.196;2022-08-24T01:20:49;11.20;;;8.98;;
48268;SDS011;34088;52.232;5.196;2022-08-24T01:25:59;11.60;;;9.98;;
48268;SDS011;34088;52.232;5.196;2022-08-24T01:28:26;13.23;;;9.93;;
48268;SDS011;34088;52.232;5.196;2022-08-24T01:30:54;10.60;;;9.45;;
48268;SDS011;34088;52.232;5.196;2022-08-24T01:33:24;11.40;;;8.85;;
48268;SDS011;34088;52.232;5.196;2022-08-24T01:35:56;9.98;;;8.95;;
48268;SDS011;34088;52.232;5.196;2022-08-24T01:38:27;12.55;;;9.15;;
48268;SDS011;34088;52.232;5.196;2022-08-24T01:40:55;10.65;;;9.02;;
48268;SDS011;34088;52.232;5.196;2022-08-24T01:43:22;9.77;;;8.57;;
48268;SDS011;34088;52.232;5.196;2022-08-24T01:45:49;11.68;;;8.98;;
48268;SDS011;34088;52.232;5.196;2022-08-24T01:48:15;11.40;;;8.75;;
48268;SDS011;34088;52.232;5.196;2022-08-24T01:50:42;11.63;;;9.50;;
48268;SDS011;34088;52.232;5.196;2022-08-24T01:53:08;11.20;;;9.02;;
48268;SDS011;34088;52.232;5.196;2022-08-24T01:55:34;12.68;;;9.77;;
48268;SDS011;34088;52.232;5.196;2022-08-24T01:58:01;15.20;;;10.40;;
48268;SDS011;34088;52.232;5.196;2022-08-24T02:00:27;13.07;;;11.30;;
48268;SDS011;34088;52.232;5.196;2022-08-24T02:02:54;12.18;;;9.18;;
48268;SDS011;34088;52.232;5.196;2022-08-24T02:05:20;11.57;;;10.15;;
48268;SDS011;34088;52.232;5.196;2022-08-24T02:07:48;10.32;;;9.23;;
48268;SDS011;34088;52.232;5.196;2022-08-24T02:10:14;11.13;;;9.88;;
48268;SDS011;34088;52.232;5.196;2022-08-24T02:12:42;12.07;;;10.30;;
48268;SDS011;34088;52.232;5.196;2022-08-24T02:15:11;11.85;;;10.38;;
48268;SDS011;34088;52.232;5.196;2022-08-24T02:17:37;11.25;;;9.93;;
48268;SDS011;34088;52.232;5.196;2022-08-24T02:20:05;11.43;;;9.82;;
48268;SDS011;34088;52.232;5.196;2022-08-24T02:22:32;11.10;;;9.88;;
48268;SDS011;34088;52.232;5.196;2022-08-24T02:24:58;12.18;;;10.13;;
48268;SDS011;34088;52.232;5.196;2022-08-24T02:27:24;11.25;;;10.05;;
48268;SDS011;34088;52.232;5.196;2022-08-24T02:29:50;13.23;;;11.50;;
48268;SDS011;34088;52.232;5.196;2022-08-24T02:32:17;12.65;;;9.43;;
48268;SDS011;34088;52.232;5.196;2022-08-24T02:34:43;10.98;;;9.77;;
48268;SDS011;34088;52.232;5.196;2022-08-24T02:37:09;10.13;;;8.88;;
48268;SDS011;34088;52.232;5.196;2022-08-24T02:39:35;9.75;;;8.75;;
48268;SDS011;34088;52.232;5.196;2022-08-24T02:42:01;11.63;;;9.18;;
48268;SDS011;34088;52.232;5.196;2022-08-24T02:44:27;9.88;;;8.98;;
48268;SDS011;34088;52.232;5.196;2022-08-24T02:46:53;10.75;;;9.57;;
48268;SDS011;34088;52.232;5.196;2022-08-24T02:49:19;11.60;;;9.85;;
48268;SDS011;34088;52.232;5.196;2022-08-24T02:51:47;13.70;;;10.25;;
48268;SDS011;34088;52.232;5.196;2022-08-24T02:54:13;10.75;;;9.45;;
48268;SDS011;34088;52.232;5.196;2022-08-24T02:56:44;10.70;;;9.60;;
48268;SDS011;34088;52.232;5.196;2022-08-24T02:59:11;10.57;;;9.48;;
48268;SDS011;34088;52.232;5.196;2022-08-24T03:01:37;11.10;;;9.40;;
48268;SDS011;34088;52.232;5.196;2022-08-24T03:04:04;10.27;;;9.20;;
48268;SDS011;34088;52.232;5.196;2022-08-24T03:06:30;9.55;;;8.55;;
48268;SDS011;34088;52.232;5.196;2022-08-24T03:08:56;10.45;;;8.45;;
48268;SDS011;34088;52.232;5.196;2022-08-24T03:11:23;11.38;;;8.48;;
48268;SDS011;34088;52.232;5.196;2022-08-24T03:13:49;8.30;;;7.50;;
48268;SDS011;34088;52.232;5.196;2022-08-24T03:16:15;9.18;;;7.95;;
48268;SDS011;34088;52.232;5.196;2022-08-24T03:18:41;9.20;;;8.20;;
48268;SDS011;34088;52.232;5.196;2022-08-24T03:21:08;9.75;;;8.52;;
48268;SDS011;34088;52.232;5.196;2022-08-24T03:23:35;9.23;;;8.10;;
48268;SDS011;34088;52.232;5.196;2022-08-24T03:26:01;8.98;;;7.93;;
48268;SDS011;34088;52.232;5.196;2022-08-24T03:28:27;9.80;;;8.75;;
48268;SDS011;34088;52.232;5.196;2022-08-24T03:30:53;9.48;;;8.40;;
48268;SDS011;34088;52.232;5.196;2022-08-24T03:33:20;8.48;;;7.45;;
48268;SDS011;34088;52.232;5.196;2022-08-24T03:35:46;10.30;;;8.75;;
48268;SDS011;34088;52.232;5.196;2022-08-24T03:38:13;9.93;;;8.10;;
48268;SDS011;34088;52.232;5.196;2022-08-24T03:40:39;9.38;;;7.88;;
48268;SDS011;34088;52.232;5.196;2022-08-24T03:43:06;9.75;;;8.00;;
48268;SDS011;34088;52.232;5.196;2022-08-24T03:45:32;11.77;;;8.48;;
48268;SDS011;34088;52.232;5.196;2022-08-24T03:47:59;8.60;;;7.70;;
48268;SDS011;34088;52.232;5.196;2022-08-24T03:50:25;9.27;;;8.10;;
48268;SDS011;34088;52.232;5.196;2022-08-24T03:52:51;10.60;;;8.40;;
48268;SDS011;34088;52.232;5.196;2022-08-24T03:55:18;9.20;;;7.82;;
48268;SDS011;34088;52.232;5.196;2022-08-24T03:57:44;11.68;;;7.43;;
48268;SDS011;34088;52.232;5.196;2022-08-24T04:00:11;8.32;;;7.22;;
48268;SDS011;34088;52.232;5.196;2022-08-24T04:02:38;9.15;;;8.25;;
48268;SDS011;34088;52.232;5.196;2022-08-24T04:05:04;9.85;;;7.75;;
48268;SDS011;34088;52.232;5.196;2022-08-24T04:07:31;8.65;;;7.82;;
48268;SDS011;34088;52.232;5.196;2022-08-24T04:09:57;8.02;;;7.22;;
48268;SDS011;34088;52.232;5.196;2022-08-24T04:12:24;8.27;;;7.05;;
48268;SDS011;34088;52.232;5.196;2022-08-24T04:14:51;12.68;;;8.20;;
48268;SDS011;34088;52.232;5.196;2022-08-24T04:17:19;8.05;;;7.25;;
48268;SDS011;34088;52.232;5.196;2022-08-24T04:19:45;9.00;;;8.02;;
48268;SDS011;34088;52.232;5.196;2022-08-24T04:22:28;8.93;;;8.02;;
48268;SDS011;34088;52.232;5.196;2022-08-24T04:24:56;10.00;;;9.00;;
48268;SDS011;34088;52.232;5.196;2022-08-24T04:27:22;9.80;;;8.80;;
48268;SDS011;34088;52.232;5.196;2022-08-24T04:29:48;9.68;;;8.20;;
48268;SDS011;34088;52.232;5.196;2022-08-24T04:32:15;11.13;;;9.60;;
48268;SDS011;34088;52.232;5.196;2022-08-24T04:34:42;10.27;;;8.90;;
48268;SDS011;34088;52.232;5.196;2022-08-24T04:37:08;10.60;;;9.55;;
48268;SDS011;34088;52.232;5.196;2022-08-24T04:39:34;11.05;;;9.88;;
48268;SDS011;34088;52.232;5.196;2022-08-24T04:42:00;13.68;;;11.40;;
48268;SDS011;34088;52.232;5.196;2022-08-24T04:44:27;10.65;;;9.55;;
48268;SDS011;34088;52.232;5.196;2022-08-24T04:46:53;11.88;;;9.70;;
48268;SDS011;34088;52.232;5.196;2022-08-24T04:49:20;10.23;;;9.10;;
48268;SDS011;34088;52.232;5.196;2022-08-24T04:51:46;10.50;;;9.35;;
48268;SDS011;34088;52.232;5.196;2022-08-24T04:54:12;12.02;;;9.07;;
48268;SDS011;34088;52.232;5.196;2022-08-24T04:56:39;10.55;;;8.82;;
48268;SDS011;34088;52.232;5.196;2022-08-24T04:59:05;12.75;;;10.48;;
48268;SDS011;34088;52.232;5.196;2022-08-24T05:01:31;10.15;;;8.82;;
48268;SDS011;34088;52.232;5.196;2022-08-24T05:03:57;12.13;;;9.40;;
48268;SDS011;34088;52.232;5.196;2022-08-24T05:06:25;9.73;;;8.57;;
48268;SDS011;34088;52.232;5.196;2022-08-24T05:08:52;9.98;;;8.65;;
48268;SDS011;34088;52.232;5.196;2022-08-24T05:11:19;10.48;;;9.07;;
48268;SDS011;34088;52.232;5.196;2022-08-24T05:13:46;11.07;;;9.45;;
48268;SDS011;34088;52.232;5.196;2022-08-24T05:16:13;9.88;;;8.88;;
48268;SDS011;34088;52.232;5.196;2022-08-24T05:18:40;11.30;;;8.90;;
48268;SDS011;34088;52.232;5.196;2022-08-24T05:21:07;11.25;;;9.98;;
48268;SDS011;34088;52.232;5.196;2022-08-24T05:23:36;11.82;;;10.07;;
48268;SDS011;34088;52.232;5.196;2022-08-24T05:26:24;13.00;;;9.50;;
48268;SDS011;34088;52.232;5.196;2022-08-24T05:28:54;11.27;;;9.90;;
48268;SDS011;34088;52.232;5.196;2022-08-24T05:31:22;12.45;;;10.38;;
48268;SDS011;34088;52.232;5.196;2022-08-24T05:33:49;12.23;;;9.57;;
48268;SDS011;34088;52.232;5.196;2022-08-24T05:38:59;10.68;;;9.40;;
48268;SDS011;34088;52.232;5.196;2022-08-24T05:41:26;11.10;;;8.68;;
48268;SDS011;34088;52.232;5.196;2022-08-24T05:43:53;9.95;;;8.30;;
48268;SDS011;34088;52.232;5.196;2022-08-24T05:46:19;11.10;;;9.30;;
48268;SDS011;34088;52.232;5.196;2022-08-24T05:48:46;12.65;;;10.27;;
48268;SDS011;34088;52.232;5.196;2022-08-24T05:51:12;13.35;;;9.30;;
48268;SDS011;34088;52.232;5.196;2022-08-24T05:53:38;12.38;;;9.60;;
48268;SDS011;34088;52.232;5.196;2022-08-24T05:56:06;18.52;;;10.10;;
48268;SDS011;34088;52.232;5.196;2022-08-24T05:58:33;13.82;;;10.70;;
48268;SDS011;34088;52.232;5.196;2022-08-24T06:01:07;15.20;;;12.80;;
48268;SDS011;34088;52.232;5.196;2022-08-24T06:03:37;16.00;;;11.77;;
48268;SDS011;34088;52.232;5.196;2022-08-24T06:06:03;14.95;;;12.23;;
48268;SDS011;34088;52.232;5.196;2022-08-24T06:08:31;19.90;;;14.88;;
48268;SDS011;34088;52.232;5.196;2022-08-24T06:10:59;17.88;;;14.70;;
48268;SDS011;34088;52.232;5.196;2022-08-24T06:13:26;20.75;;;15.35;;
48268;SDS011;34088;52.232;5.196;2022-08-24T06:16:03;18.98;;;15.75;;
48268;SDS011;34088;52.232;5.196;2022-08-24T06:18:30;23.50;;;19.52;;
48268;SDS011;34088;52.232;5.196;2022-08-24T06:20:56;20.67;;;18.35;;
48268;SDS011;34088;52.232;5.196;2022-08-24T06:23:23;22.80;;;17.25;;
48268;SDS011;34088;52.232;5.196;2022-08-24T06:25:49;22.42;;;17.55;;
48268;SDS011;34088;52.232;5.196;2022-08-24T06:28:34;23.80;;;18.27;;
48268;SDS011;34088;52.232;5.196;2022-08-24T06:31:04;20.77;;;17.60;;
48268;SDS011;34088;52.232;5.196;2022-08-24T06:33:31;23.80;;;16.85;;
48268;SDS011;34088;52.232;5.196;2022-08-24T06:35:57;22.00;;;17.90;;
48268;SDS011;34088;52.232;5.196;2022-08-24T06:38:23;21.50;;;18.88;;
48268;SDS011;34088;52.232;5.196;2022-08-24T06:40:49;23.55;;;17.67;;
48268;SDS011;34088;52.232;5.196;2022-08-24T06:43:15;24.67;;;19.02;;
48268;SDS011;34088;52.232;5.196;2022-08-24T06:45:42;22.17;;;18.73;;
48268;SDS011;34088;52.232;5.196;2022-08-24T06:48:08;26.30;;;17.98;;
48268;SDS011;34088;52.232;5.196;2022-08-24T07:02:33;22.95;;;19.00;;
48268;SDS011;34088;52.232;5.196;2022-08-24T07:04:59;24.27;;;19.20;;
48268;SDS011;34088;52.232;5.196;2022-08-24T07:07:25;24.35;;;17.98;;
48268;SDS011;34088;52.232;5.196;2022-08-24T07:09:51;26.27;;;18.55;;
48268;SDS011;34088;52.232;5.196;2022-08-24T07:12:17;22.95;;;17.90;;
48268;SDS011;34088;52.232;5.196;2022-08-24T07:14:43;24.63;;;19.67;;
48268;SDS011;34088;52.232;5.196;2022-08-24T07:17:09;22.27;;;17.98;;
48268;SDS011;34088;52.232;5.196;2022-08-24T07:19:35;21.83;;;17.42;;
48268;SDS011;34088;52.232;5.196;2022-08-24T07:22:02;22.08;;;18.42;;
48268;SDS011;34088;52.232;5.196;2022-08-24T07:24:28;19.83;;;17.70;;
48268;SDS011;34088;52.232;5.196;2022-08-24T07:26:54;24.65;;;17.63;;
48268;SDS011;34088;52.232;5.196;2022-08-24T07:29:20;21.65;;;17.10;;
48268;SDS011;34088;52.232;5.196;2022-08-24T07:31:46;18.42;;;16.40;;
48268;SDS011;34088;52.232;5.196;2022-08-24T07:34:13;18.52;;;15.73;;
48268;SDS011;34088;52.232;5.196;2022-08-24T07:36:39;19.67;;;15.40;;
48268;SDS011;34088;52.232;5.196;2022-08-24T07:39:06;19.88;;;15.80;;
48268;SDS011;34088;52.232;5.196;2022-08-24T07:41:36;20.98;;;16.10;;
48268;SDS011;34088;52.232;5.196;2022-08-24T07:44:03;17.63;;;14.30;;
48268;SDS011;34088;52.232;5.196;2022-08-24T07:46:29;18.40;;;14.90;;
48268;SDS011;34088;52.232;5.196;2022-08-24T07:48:56;23.63;;;14.60;;
48268;SDS011;34088;52.232;5.196;2022-08-24T07:51:22;21.08;;;14.15;;
48268;SDS011;34088;52.232;5.196;2022-08-24T07:53:48;17.85;;;13.00;;
48268;SDS011;34088;52.232;5.196;2022-08-24T07:56:15;16.90;;;13.10;;
48268;SDS011;34088;52.232;5.196;2022-08-24T07:58:41;16.33;;;13.25;;
48268;SDS011;34088;52.232;5.196;2022-08-24T08:01:07;16.52;;;11.93;;
48268;SDS011;34088;52.232;5.196;2022-08-24T08:03:34;15.77;;;11.25;;
48268;SDS011;34088;52.232;5.196;2022-08-24T08:06:02;19.13;;;11.02;;
48268;SDS011;34088;52.232;5.196;2022-08-24T08:08:30;17.00;;;11.65;;
48268;SDS011;34088;52.232;5.196;2022-08-24T08:10:58;14.57;;;10.35;;
48268;SDS011;34088;52.232;5.196;2022-08-24T08:13:26;15.05;;;11.00;;
48268;SDS011;34088;52.232;5.196;2022-08-24T08:15:53;17.23;;;11.98;;
48268;SDS011;34088;52.232;5.196;2022-08-24T08:18:20;13.50;;;9.48;;
48268;SDS011;34088;52.232;5.196;2022-08-24T08:20:47;15.77;;;10.68;;
48268;SDS011;34088;52.232;5.196;2022-08-24T08:23:14;15.68;;;9.35;;
48268;SDS011;34088;52.232;5.196;2022-08-24T08:25:58;15.98;;;9.40;;
48268;SDS011;34088;52.232;5.196;2022-08-24T08:28:26;12.30;;;8.43;;
48268;SDS011;34088;52.232;5.196;2022-08-24T08:30:57;12.05;;;8.15;;
48268;SDS011;34088;52.232;5.196;2022-08-24T08:33:24;8.30;;;6.43;;
48268;SDS011;34088;52.232;5.196;2022-08-24T08:35:51;7.80;;;5.72;;
48268;SDS011;34088;52.232;5.196;2022-08-24T08:38:20;9.60;;;5.38;;
48268;SDS011;34088;52.232;5.196;2022-08-24T08:40:54;10.30;;;6.53;;
48268;SDS011;34088;52.232;5.196;2022-08-24T08:46:21;10.68;;;5.90;;
48268;SDS011;34088;52.232;5.196;2022-08-24T08:52:06;9.38;;;5.60;;
48268;SDS011;34088;52.232;5.196;2022-08-24T08:54:54;5.30;;;3.67;;
48268;SDS011;34088;52.232;5.196;2022-08-24T09:00:20;6.65;;;3.95;;
48268;SDS011;34088;52.232;5.196;2022-08-24T09:05:53;4.65;;;3.72;;
48268;SDS011;34088;52.232;5.196;2022-08-24T09:09:05;6.95;;;3.72;;
48268;SDS011;34088;52.232;5.196;2022-08-24T09:11:55;6.75;;;3.28;;
48268;SDS011;34088;52.232;5.196;2022-08-24T09:17:53;7.57;;;3.72;;
48268;SDS011;34088;52.232;5.196;2022-08-24T09:23:35;6.68;;;3.80;;
48268;SDS011;34088;52.232;5.196;2022-08-24T09:26:24;4.32;;;3.13;;
48268;SDS011;34088;52.232;5.196;2022-08-24T09:28:57;5.45;;;2.50;;
48268;SDS011;34088;52.232;5.196;2022-08-24T09:31:34;4.53;;;3.08;;
48268;SDS011;34088;52.232;5.196;2022-08-24T09:39:59;6.07;;;3.60;;
48268;SDS011;34088;52.232;5.196;2022-08-24T09:42:54;7.30;;;4.28;;
48268;SDS011;34088;52.232;5.196;2022-08-24T09:45:46;6.88;;;4.00;;
48268;SDS011;34088;52.232;5.196;2022-08-24T09:48:40;9.57;;;4.05;;
48268;SDS011;34088;52.232;5.196;2022-08-24T09:51:51;8.88;;;4.82;;
48268;SDS011;34088;52.232;5.196;2022-08-24T10:00:20;8.77;;;3.83;;
48268;SDS011;34088;52.232;5.196;2022-08-24T10:03:02;10.70;;;4.95;;
48268;SDS011;34088;52.232;5.196;2022-08-24T10:08:21;8.40;;;5.22;;
48268;SDS011;34088;52.232;5.196;2022-08-24T10:13:49;9.20;;;4.90;;
48268;SDS011;34088;52.232;5.196;2022-08-24T10:25:25;8.73;;;4.05;;
48268;SDS011;34088;52.232;5.196;2022-08-24T10:27:58;8.63;;;4.68;;
48268;SDS011;34088;52.232;5.196;2022-08-24T10:36:00;5.85;;;3.00;;
48268;SDS011;34088;52.232;5.196;2022-08-24T10:44:46;4.47;;;2.80;;
48268;SDS011;34088;52.232;5.196;2022-08-24T10:47:24;4.35;;;2.25;;
48268;SDS011;34088;52.232;5.196;2022-08-24T10:53:04;4.38;;;2.55;;
48268;SDS011;34088;52.232;5.196;2022-08-24T10:55:50;5.18;;;2.78;;
48268;SDS011;34088;52.232;5.196;2022-08-24T11:01:23;4.15;;;2.20;;
48268;SDS011;34088;52.232;5.196;2022-08-24T11:03:53;5.13;;;1.80;;
48268;SDS011;34088;52.232;5.196;2022-08-24T11:06:21;5.20;;;2.10;;
48268;SDS011;34088;52.232;5.196;2022-08-24T11:08:56;4.35;;;2.40;;
48268;SDS011;34088;52.232;5.196;2022-08-24T11:11:28;2.90;;;2.00;;
48268;SDS011;34088;52.232;5.196;2022-08-24T11:14:00;4.18;;;1.60;;
48268;SDS011;34088;52.232;5.196;2022-08-24T11:16:50;3.60;;;1.85;;
48268;SDS011;34088;52.232;5.196;2022-08-24T11:21:52;4.35;;;2.40;;
48268;SDS011;34088;52.232;5.196;2022-08-24T11:26:55;3.47;;;2.25;;
48268;SDS011;34088;52.232;5.196;2022-08-24T11:32:26;4.43;;;1.90;;
48268;SDS011;34088;52.232;5.196;2022-08-24T11:37:40;5.72;;;2.63;;
48268;SDS011;34088;52.232;5.196;2022-08-24T11:40:07;5.53;;;2.40;;
48268;SDS011;34088;52.232;5.196;2022-08-24T11:45:14;4.63;;;2.30;;
48268;SDS011;34088;52.232;5.196;2022-08-24T11:48:01;5.57;;;2.33;;
48268;SDS011;34088;52.232;5.196;2022-08-24T11:50:57;5.70;;;1.92;;
48268;SDS011;34088;52.232;5.196;2022-08-24T11:53:31;5.60;;;2.25;;
48268;SDS011;34088;52.232;5.196;2022-08-24T11:56:03;4.63;;;2.28;;
48268;SDS011;34088;52.232;5.196;2022-08-24T12:01:22;5.78;;;2.28;;
48268;SDS011;34088;52.232;5.196;2022-08-24T12:04:04;3.20;;;2.60;;
48268;SDS011;34088;52.232;5.196;2022-08-24T12:06:52;5.45;;;2.63;;
48268;SDS011;34088;52.232;5.196;2022-08-24T12:09:29;5.00;;;3.20;;
48268;SDS011;34088;52.232;5.196;2022-08-24T12:12:11;4.72;;;2.70;;
48268;SDS011;34088;52.232;5.196;2022-08-24T12:14:55;4.68;;;2.33;;
48268;SDS011;34088;52.232;5.196;2022-08-24T12:17:27;7.82;;;2.90;;
48268;SDS011;34088;52.232;5.196;2022-08-24T12:19:59;5.50;;;2.72;;
48268;SDS011;34088;52.232;5.196;2022-08-24T12:22:31;9.30;;;2.53;;
48268;SDS011;34088;52.232;5.196;2022-08-24T12:24:59;4.40;;;2.30;;
48268;SDS011;34088;52.232;5.196;2022-08-24T12:27:47;3.95;;;2.63;;
48268;SDS011;34088;52.232;5.196;2022-08-24T12:30:14;2.97;;;1.65;;
48268;SDS011;34088;52.232;5.196;2022-08-24T12:32:42;4.93;;;1.90;;
48268;SDS011;34088;52.232;5.196;2022-08-24T12:37:56;6.15;;;1.63;;
48268;SDS011;34088;52.232;5.196;2022-08-24T12:40:40;1.50;;;1.17;;
48268;SDS011;34088;52.232;5.196;2022-08-24T12:43:11;3.08;;;1.27;;
48268;SDS011;34088;52.232;5.196;2022-08-24T12:45:45;3.55;;;1.40;;
48268;SDS011;34088;52.232;5.196;2022-08-24T12:48:22;4.65;;;1.08;;
48268;SDS011;34088;52.232;5.196;2022-08-24T12:53:55;2.55;;;1.10;;
48268;SDS011;34088;52.232;5.196;2022-08-24T12:59:37;2.05;;;1.15;;
48268;SDS011;34088;52.232;5.196;2022-08-24T13:02:41;1.60;;;1.10;;
48268;SDS011;34088;52.232;5.196;2022-08-24T13:05:13;1.75;;;1.20;;
48268;SDS011;34088;52.232;5.196;2022-08-24T13:07:44;1.50;;;1.20;;
48268;SDS011;34088;52.232;5.196;2022-08-24T13:10:12;3.33;;;1.10;;
48268;SDS011;34088;52.232;5.196;2022-08-24T13:13:09;1.42;;;1.08;;
48268;SDS011;34088;52.232;5.196;2022-08-24T13:39:21;2.55;;;1.30;;
48268;SDS011;34088;52.232;5.196;2022-08-24T13:44:46;4.28;;;1.40;;
48268;SDS011;34088;52.232;5.196;2022-08-24T13:50:32;2.55;;;1.35;;
48268;SDS011;34088;52.232;5.196;2022-08-24T14:01:48;5.75;;;1.52;;
48268;SDS011;34088;52.232;5.196;2022-08-24T14:09:33;3.75;;;1.55;;
48268;SDS011;34088;52.232;5.196;2022-08-24T14:12:17;2.97;;;1.38;;
48268;SDS011;34088;52.232;5.196;2022-08-24T14:15:16;3.15;;;1.55;;
48268;SDS011;34088;52.232;5.196;2022-08-24T14:26:49;6.90;;;1.85;;
48268;SDS011;34088;52.232;5.196;2022-08-24T14:32:24;3.40;;;1.40;;
48268;SDS011;34088;52.232;5.196;2022-08-24T14:34:36;5.93;;;1.60;;
48268;SDS011;34088;52.232;5.196;2022-08-24T14:42:35;2.67;;;1.60;;
48268;SDS011;34088;52.232;5.196;2022-08-24T14:45:10;1.65;;;1.50;;
48268;SDS011;34088;52.232;5.196;2022-08-24T14:50:23;3.00;;;1.67;;
48268;SDS011;34088;52.232;5.196;2022-08-24T14:53:06;4.70;;;1.85;;
48268;SDS011;34088;52.232;5.196;2022-08-24T14:56:04;2.83;;;1.45;;
48268;SDS011;34088;52.232;5.196;2022-08-24T14:58:46;4.88;;;1.50;;
48268;SDS011;34088;52.232;5.196;2022-08-24T15:04:09;5.80;;;1.40;;
48268;SDS011;34088;52.232;5.196;2022-08-24T15:06:52;2.08;;;1.33;;
48268;SDS011;34088;52.232;5.196;2022-08-24T15:11:49;2.95;;;1.45;;
48268;SDS011;34088;52.232;5.196;2022-08-24T15:14:23;3.15;;;1.50;;
48268;SDS011;34088;52.232;5.196;2022-08-24T15:17:04;2.05;;;1.40;;
48268;SDS011;34088;52.232;5.196;2022-08-24T15:22:25;3.28;;;1.40;;
48268;SDS011;34088;52.232;5.196;2022-08-24T15:25:10;2.55;;;1.50;;
48268;SDS011;34088;52.232;5.196;2022-08-24T15:27:41;3.75;;;1.70;;
48268;SDS011;34088;52.232;5.196;2022-08-24T15:32:49;1.92;;;1.50;;
48268;SDS011;34088;52.232;5.196;2022-08-24T15:35:23;2.22;;;1.50;;
48268;SDS011;34088;52.232;5.196;2022-08-24T15:37:54;3.97;;;1.60;;
48268;SDS011;34088;52.232;5.196;2022-08-24T15:42:53;3.35;;;1.48;;
48268;SDS011;34088;52.232;5.196;2022-08-24T15:45:21;2.78;;;1.70;;
48268;SDS011;34088;52.232;5.196;2022-08-24T15:47:48;2.42;;;1.60;;
48268;SDS011;34088;52.232;5.196;2022-08-24T15:50:25;3.15;;;1.83;;
48268;SDS011;34088;52.232;5.196;2022-08-24T15:57:54;4.20;;;1.65;;
48268;SDS011;34088;52.232;5.196;2022-08-24T16:00:21;2.53;;;1.55;;
48268;SDS011;34088;52.232;5.196;2022-08-24T16:03:24;3.05;;;1.73;;
48268;SDS011;34088;52.232;5.196;2022-08-24T16:11:31;5.30;;;2.50;;
48268;SDS011;34088;52.232;5.196;2022-08-24T16:13:59;4.13;;;1.98;;
48268;SDS011;34088;52.232;5.196;2022-08-24T16:16:33;4.03;;;2.00;;
48268;SDS011;34088;52.232;5.196;2022-08-24T16:19:02;4.82;;;2.10;;
48268;SDS011;34088;52.232;5.196;2022-08-24T16:21:38;6.38;;;2.45;;
48268;SDS011;34088;52.232;5.196;2022-08-24T16:24:13;5.05;;;2.30;;
48268;SDS011;34088;52.232;5.196;2022-08-24T16:32:19;3.28;;;2.35;;
48268;SDS011;34088;52.232;5.196;2022-08-24T16:34:47;4.60;;;2.50;;
48268;SDS011;34088;52.232;5.196;2022-08-24T16:37:15;3.67;;;2.10;;
48268;SDS011;34088;52.232;5.196;2022-08-24T16:39:43;3.42;;;2.17;;
48268;SDS011;34088;52.232;5.196;2022-08-24T16:42:12;4.70;;;2.38;;
48268;SDS011;34088;52.232;5.196;2022-08-24T16:44:44;2.57;;;2.00;;
48268;SDS011;34088;52.232;5.196;2022-08-24T16:47:10;3.17;;;1.90;;
48268;SDS011;34088;52.232;5.196;2022-08-24T16:49:36;3.67;;;2.53;;
48268;SDS011;34088;52.232;5.196;2022-08-24T16:52:04;3.30;;;1.98;;
48268;SDS011;34088;52.232;5.196;2022-08-24T16:54:30;4.47;;;2.13;;
48268;SDS011;34088;52.232;5.196;2022-08-24T16:56:57;2.22;;;1.70;;
48268;SDS011;34088;52.232;5.196;2022-08-24T16:59:30;2.42;;;1.55;;
48268;SDS011;34088;52.232;5.196;2022-08-24T17:01:58;4.05;;;2.00;;
48268;SDS011;34088;52.232;5.196;2022-08-24T17:04:24;4.70;;;1.90;;
48268;SDS011;34088;52.232;5.196;2022-08-24T17:06:51;6.13;;;2.30;;
48268;SDS011;34088;52.232;5.196;2022-08-24T17:09:19;2.88;;;2.05;;
48268;SDS011;34088;52.232;5.196;2022-08-24T17:11:45;2.22;;;1.67;;
48268;SDS011;34088;52.232;5.196;2022-08-24T17:14:12;5.45;;;1.80;;
48268;SDS011;34088;52.232;5.196;2022-08-24T17:16:38;3.58;;;1.73;;
48268;SDS011;34088;52.232;5.196;2022-08-24T17:19:09;3.05;;;2.30;;
48268;SDS011;34088;52.232;5.196;2022-08-24T17:21:37;3.60;;;1.75;;
48268;SDS011;34088;52.232;5.196;2022-08-24T17:24:04;2.42;;;1.90;;
48268;SDS011;34088;52.232;5.196;2022-08-24T17:26:31;6.20;;;2.00;;
48268;SDS011;34088;52.232;5.196;2022-08-24T17:28:58;2.60;;;1.80;;
48268;SDS011;34088;52.232;5.196;2022-08-24T17:31:25;3.70;;;1.50;;
48268;SDS011;34088;52.232;5.196;2022-08-24T17:33:53;2.90;;;1.60;;
48268;SDS011;34088;52.232;5.196;2022-08-24T17:36:19;3.75;;;1.55;;
48268;SDS011;34088;52.232;5.196;2022-08-24T17:38:47;4.50;;;1.80;;
48268;SDS011;34088;52.232;5.196;2022-08-24T17:41:15;2.60;;;1.70;;
48268;SDS011;34088;52.232;5.196;2022-08-24T17:43:41;4.00;;;1.60;;
48268;SDS011;34088;52.232;5.196;2022-08-24T17:46:08;1.92;;;1.67;;
48268;SDS011;34088;52.232;5.196;2022-08-24T17:48:35;4.40;;;1.75;;
48268;SDS011;34088;52.232;5.196;2022-08-24T17:51:01;2.65;;;1.92;;
48268;SDS011;34088;52.232;5.196;2022-08-24T17:53:27;3.60;;;1.80;;
48268;SDS011;34088;52.232;5.196;2022-08-24T17:55:53;4.43;;;1.88;;
48268;SDS011;34088;52.232;5.196;2022-08-24T17:58:19;3.58;;;1.70;;
48268;SDS011;34088;52.232;5.196;2022-08-24T18:00:46;4.57;;;1.70;;
48268;SDS011;34088;52.232;5.196;2022-08-24T18:03:12;2.05;;;1.60;;
48268;SDS011;34088;52.232;5.196;2022-08-24T18:05:38;2.67;;;1.70;;
48268;SDS011;34088;52.232;5.196;2022-08-24T18:08:04;4.95;;;1.90;;
48268;SDS011;34088;52.232;5.196;2022-08-24T18:10:31;2.95;;;1.65;;
48268;SDS011;34088;52.232;5.196;2022-08-24T18:12:58;1.85;;;1.67;;
48268;SDS011;34088;52.232;5.196;2022-08-24T18:15:25;3.53;;;1.80;;
48268;SDS011;34088;52.232;5.196;2022-08-24T18:17:54;4.75;;;1.98;;
48268;SDS011;34088;52.232;5.196;2022-08-24T18:20:23;3.85;;;2.47;;